sensor_id;sensor_type;location;lat;lon;timestamp;pressure;altitude;pressure_sealevel;temperature;humidity
25130;BME280;13308;50.860;13.664;2023-05-19T04:37:28;97541.59;;;7.79;100.00
25130;BME280;13308;50.860;13.664;2023-05-19T04:39:54;97551.03;;;7.78;100.00
25130;BME280;13308;50.860;13.664;2023-05-19T04:42:21;97539.38;;;7.95;100.00
25130;BME280;13308;50.860;13.664;2023-05-19T04:44:50;97544.19;;;8.12;100.00
25130;BME280;13308;50.860;13.664;2023-05-19T04:47:16;97555.63;;;8.24;100.00
25130;BME280;13308;50.860;13.664;2023-05-19T04:49:42;97549.75;;;8.26;100.00
25130;BME280;13308;50.860;13.664;2023-05-19T04:52:09;97555.75;;;8.42;100.00
25130;BME280;13308;50.860;13.664;2023-05-19T04:54:36;97557.69;;;8.44;100.00
25130;BME280;13308;50.860;13.664;2023-05-19T04:57:02;97557.81;;;8.72;98.45
25130;BME280;13308;50.860;13.664;2023-05-19T04:59:30;97555.50;;;8.88;97.01
25130;BME280;13308;50.860;13.664;2023-05-19T05:01:56;97560.22;;;8.91;96.68
25130;BME280;13308;50.860;13.664;2023-05-19T05:04:23;97565.78;;;9.05;95.32
25130;BME280;13308;50.860;13.664;2023-05-19T05:06:48;97573.63;;;9.07;95.26
25130;BME280;13308;50.860;13.664;2023-05-19T05:09:16;97574.41;;;9.04;97.33
25130;BME280;13308;50.860;13.664;2023-05-19T05:11:42;97558.66;;;8.90;98.84
25130;BME280;13308;50.860;13.664;2023-05-19T05:14:08;97555.53;;;9.02;98.85
25130;BME280;13308;50.860;13.664;2023-05-19T05:16:34;97561.03;;;9.02;99.02
25130;BME280;13308;50.860;13.664;2023-05-19T05:19:00;97560.66;;;9.14;98.02
25130;BME280;13308;50.860;13.664;2023-05-19T05:21:27;97559.13;;;9.38;98.24
25130;BME280;13308;50.860;13.664;2023-05-19T05:23:53;97563.47;;;9.56;99.19
25130;BME280;13308;50.860;13.664;2023-05-19T05:26:21;97565.03;;;9.71;99.69
25130;BME280;13308;50.860;13.664;2023-05-19T05:28:54;97557.53;;;9.89;98.29
25130;BME280;13308;50.860;13.664;2023-05-19T05:31:19;97561.47;;;10.02;98.31
25130;BME280;13308;50.860;13.664;2023-05-19T05:33:45;97559.84;;;10.22;97.98
25130;BME280;13308;50.860;13.664;2023-05-19T05:36:12;97564.94;;;10.34;98.01
25130;BME280;13308;50.860;13.664;2023-05-19T05:38:38;97559.38;;;10.52;98.20
25130;BME280;13308;50.860;13.664;2023-05-19T05:41:03;97566.47;;;10.53;95.56
25130;BME280;13308;50.860;13.664;2023-05-19T05:43:30;97568.00;;;10.64;95.60
25130;BME280;13308;50.860;13.664;2023-05-19T05:45:59;97564.41;;;10.74;94.77
25130;BME280;13308;50.860;13.664;2023-05-19T05:48:24;97569.44;;;10.93;95.21
25130;BME280;13308;50.860;13.664;2023-05-19T05:50:51;97578.88;;;10.99;93.83
25130;BME280;13308;50.860;13.664;2023-05-19T05:53:23;97571.69;;;11.12;91.62
25130;BME280;13308;50.860;13.664;2023-05-19T05:55:51;97572.81;;;11.25;91.64
25130;BME280;13308;50.860;13.664;2023-05-19T05:58:19;97576.28;;;11.36;93.29
25130;BME280;13308;50.860;13.664;2023-05-19T06:00:45;97573.06;;;11.45;92.08
25130;BME280;13308;50.860;13.664;2023-05-19T06:03:13;97571.00;;;11.59;90.69
25130;BME280;13308;50.860;13.664;2023-05-19T06:05:39;97578.41;;;11.73;90.57
25130;BME280;13308;50.860;13.664;2023-05-19T06:08:04;97570.38;;;11.89;91.31
25130;BME280;13308;50.860;13.664;2023-05-19T06:10:30;97572.97;;;12.06;90.23
25130;BME280;13308;50.860;13.664;2023-05-19T06:12:57;97576.38;;;12.21;88.41
25130;BME280;13308;50.860;13.664;2023-05-19T06:15:24;97573.59;;;12.24;85.33
25130;BME280;13308;50.860;13.664;2023-05-19T06:17:57;97570.81;;;12.24;84.85
25130;BME280;13308;50.860;13.664;2023-05-19T06:20:22;97570.69;;;12.38;83.86
25130;BME280;13308;50.860;13.664;2023-05-19T06:22:49;97575.66;;;12.54;83.23
25130;BME280;13308;50.860;13.664;2023-05-19T06:25:17;97567.31;;;12.57;82.82
25130;BME280;13308;50.860;13.664;2023-05-19T06:27:42;97553.47;;;12.57;83.70
25130;BME280;13308;50.860;13.664;2023-05-19T06:30:08;97553.03;;;12.62;83.42
25130;BME280;13308;50.860;13.664;2023-05-19T06:32:42;97552.94;;;12.69;82.38
25130;BME280;13308;50.860;13.664;2023-05-19T06:35:07;97557.63;;;12.72;82.87
25130;BME280;13308;50.860;13.664;2023-05-19T06:37:33;97570.00;;;12.94;84.63
25130;BME280;13308;50.860;13.664;2023-05-19T06:39:58;97562.00;;;13.56;85.08
25130;BME280;13308;50.860;13.664;2023-05-19T06:42:24;97561.16;;;14.09;81.20
25130;BME280;13308;50.860;13.664;2023-05-19T06:45:10;97570.25;;;14.32;78.33
25130;BME280;13308;50.860;13.664;2023-05-19T06:47:36;97564.38;;;14.50;79.59
25130;BME280;13308;50.860;13.664;2023-05-19T06:50:02;97568.09;;;14.63;76.22
25130;BME280;13308;50.860;13.664;2023-05-19T06:52:31;97569.75;;;14.14;75.38
25130;BME280;13308;50.860;13.664;2023-05-19T06:54:59;97570.31;;;14.29;77.49
25130;BME280;13308;50.860;13.664;2023-05-19T06:57:24;97569.75;;;14.14;76.79
25130;BME280;13308;50.860;13.664;2023-05-19T06:59:50;97566.97;;;14.14;77.31
25130;BME280;13308;50.860;13.664;2023-05-19T07:02:16;97574.41;;;15.02;77.14
25130;BME280;13308;50.860;13.664;2023-05-19T07:04:41;97580.31;;;16.23;74.07
25130;BME280;13308;50.860;13.664;2023-05-19T07:07:08;97582.66;;;16.85;69.73
25130;BME280;13308;50.860;13.664;2023-05-19T07:09:34;97582.56;;;17.42;65.22
25130;BME280;13308;50.860;13.664;2023-05-19T07:11:59;97590.50;;;18.65;61.76
25130;BME280;13308;50.860;13.664;2023-05-19T07:14:26;97583.22;;;19.10;55.72
25130;BME280;13308;50.860;13.664;2023-05-19T07:16:51;97585.94;;;18.80;57.48
25130;BME280;13308;50.860;13.664;2023-05-19T07:19:17;97582.94;;;17.69;58.60
25130;BME280;13308;50.860;13.664;2023-05-19T07:21:44;97579.38;;;17.15;60.96
25130;BME280;13308;50.860;13.664;2023-05-19T07:24:10;97573.31;;;16.63;63.20
25130;BME280;13308;50.860;13.664;2023-05-19T07:26:35;97580.50;;;16.00;65.89
25130;BME280;13308;50.860;13.664;2023-05-19T07:29:01;97576.63;;;15.46;68.19
25130;BME280;13308;50.860;13.664;2023-05-19T07:31:26;97577.34;;;15.50;68.08
25130;BME280;13308;50.860;13.664;2023-05-19T07:33:51;97573.53;;;15.60;67.21
25130;BME280;13308;50.860;13.664;2023-05-19T07:36:17;97572.25;;;15.65;68.01
25130;BME280;13308;50.860;13.664;2023-05-19T07:38:42;97575.63;;;16.20;64.28
25130;BME280;13308;50.860;13.664;2023-05-19T07:41:08;97575.69;;;16.77;63.61
25130;BME280;13308;50.860;13.664;2023-05-19T07:43:33;97577.06;;;16.85;61.04
25130;BME280;13308;50.860;13.664;2023-05-19T07:45:58;97581.66;;;16.63;65.50
25130;BME280;13308;50.860;13.664;2023-05-19T07:48:24;97568.97;;;16.62;60.11
25130;BME280;13308;50.860;13.664;2023-05-19T07:50:51;97572.28;;;16.57;62.64
25130;BME280;13308;50.860;13.664;2023-05-19T07:53:17;97578.38;;;17.09;62.34
25130;BME280;13308;50.860;13.664;2023-05-19T07:55:43;97582.72;;;17.10;62.42
25130;BME280;13308;50.860;13.664;2023-05-19T07:58:08;97573.34;;;17.04;65.19
25130;BME280;13308;50.860;13.664;2023-05-19T08:00:33;97583.72;;;17.16;63.98
25130;BME280;13308;50.860;13.664;2023-05-19T08:02:59;97575.25;;;17.20;63.20
25130;BME280;13308;50.860;13.664;2023-05-19T08:05:25;97573.75;;;17.44;61.97
25130;BME280;13308;50.860;13.664;2023-05-19T08:07:51;97574.09;;;17.58;63.86
25130;BME280;13308;50.860;13.664;2023-05-19T08:10:17;97578.09;;;17.32;63.27
25130;BME280;13308;50.860;13.664;2023-05-19T08:12:42;97575.28;;;17.32;59.43
25130;BME280;13308;50.860;13.664;2023-05-19T08:15:08;97577.66;;;17.96;59.85
25130;BME280;13308;50.860;13.664;2023-05-19T08:17:36;97576.66;;;17.40;57.62
25130;BME280;13308;50.860;13.664;2023-05-19T08:20:01;97577.69;;;17.84;59.76
25130;BME280;13308;50.860;13.664;2023-05-19T08:22:29;97580.09;;;18.66;59.15
25130;BME280;13308;50.860;13.664;2023-05-19T08:24:54;97576.84;;;18.88;55.67
25130;BME280;13308;50.860;13.664;2023-05-19T08:27:19;97577.78;;;19.07;55.82
25130;BME280;13308;50.860;13.664;2023-05-19T08:29:45;97583.91;;;18.93;56.15
25130;BME280;13308;50.860;13.664;2023-05-19T08:32:10;97580.78;;;19.34;54.73
25130;BME280;13308;50.860;13.664;2023-05-19T08:34:35;97579.78;;;19.49;52.09
25130;BME280;13308;50.860;13.664;2023-05-19T08:37:01;97570.81;;;20.03;51.13
25130;BME280;13308;50.860;13.664;2023-05-19T08:39:27;97574.72;;;19.66;52.33
25130;BME280;13308;50.860;13.664;2023-05-19T08:41:52;97569.72;;;19.61;52.52
25130;BME280;13308;50.860;13.664;2023-05-19T08:44:18;97565.63;;;20.32;51.41
25130;BME280;13308;50.860;13.664;2023-05-19T08:46:44;97568.38;;;20.23;50.64
25130;BME280;13308;50.860;13.664;2023-05-19T08:49:12;97566.28;;;20.72;51.14
25130;BME280;13308;50.860;13.664;2023-05-19T08:51:49;97556.44;;;20.40;50.35
25130;BME280;13308;50.860;13.664;2023-05-19T08:54:19;97565.97;;;21.15;50.18
25130;BME280;13308;50.860;13.664;2023-05-19T08:56:49;97565.97;;;20.88;51.78
25130;BME280;13308;50.860;13.664;2023-05-19T08:59:16;97560.34;;;21.15;48.55
25130;BME280;13308;50.860;13.664;2023-05-19T09:01:44;97556.94;;;20.84;49.48
25130;BME280;13308;50.860;13.664;2023-05-19T09:04:11;97565.34;;;21.11;48.10
25130;BME280;13308;50.860;13.664;2023-05-19T09:06:37;97562.25;;;21.09;48.77
25130;BME280;13308;50.860;13.664;2023-05-19T09:09:05;97564.66;;;21.43;48.35
25130;BME280;13308;50.860;13.664;2023-05-19T09:11:32;97556.78;;;20.69;49.49
25130;BME280;13308;50.860;13.664;2023-05-19T09:13:57;97549.16;;;20.79;49.12
25130;BME280;13308;50.860;13.664;2023-05-19T09:16:23;97547.59;;;20.96;49.65
25130;BME280;13308;50.860;13.664;2023-05-19T09:18:55;97545.72;;;20.66;49.72
25130;BME280;13308;50.860;13.664;2023-05-19T09:21:30;97545.38;;;20.82;50.77
25130;BME280;13308;50.860;13.664;2023-05-19T09:24:05;97549.91;;;20.52;50.52
25130;BME280;13308;50.860;13.664;2023-05-19T09:26:41;97540.44;;;20.59;51.67
25130;BME280;13308;50.860;13.664;2023-05-19T09:29:16;97530.72;;;20.06;53.71
25130;BME280;13308;50.860;13.664;2023-05-19T09:31:49;97540.25;;;19.78;52.52
25130;BME280;13308;50.860;13.664;2023-05-19T09:34:15;97531.06;;;19.77;52.10
25130;BME280;13308;50.860;13.664;2023-05-19T09:36:40;97525.88;;;19.67;48.68
25130;BME280;13308;50.860;13.664;2023-05-19T09:39:13;97538.69;;;19.86;50.08
25130;BME280;13308;50.860;13.664;2023-05-19T09:41:38;97534.50;;;20.30;52.13
25130;BME280;13308;50.860;13.664;2023-05-19T09:44:04;97534.78;;;20.23;48.11
25130;BME280;13308;50.860;13.664;2023-05-19T09:46:31;97521.78;;;19.98;48.16
25130;BME280;13308;50.860;13.664;2023-05-19T09:48:59;97526.84;;;20.21;49.29
25130;BME280;13308;50.860;13.664;2023-05-19T09:51:24;97528.25;;;20.26;50.32
25130;BME280;13308;50.860;13.664;2023-05-19T09:53:51;97527.81;;;20.63;47.81
25130;BME280;13308;50.860;13.664;2023-05-19T09:56:17;97512.84;;;20.66;47.37
25130;BME280;13308;50.860;13.664;2023-05-19T09:58:47;97535.41;;;21.17;50.06
25130;BME280;13308;50.860;13.664;2023-05-19T10:01:13;97529.97;;;21.73;46.57
25130;BME280;13308;50.860;13.664;2023-05-19T10:03:39;97539.25;;;21.88;46.28
25130;BME280;13308;50.860;13.664;2023-05-19T10:06:06;97526.19;;;21.25;45.62
25130;BME280;13308;50.860;13.664;2023-05-19T10:08:33;97510.84;;;21.44;45.58
25130;BME280;13308;50.860;13.664;2023-05-19T10:10:58;97519.38;;;21.68;47.14
25130;BME280;13308;50.860;13.664;2023-05-19T10:13:25;97508.13;;;21.68;46.62
25130;BME280;13308;50.860;13.664;2023-05-19T10:15:51;97504.41;;;21.94;45.53
25130;BME280;13308;50.860;13.664;2023-05-19T10:18:18;97511.25;;;22.26;48.53
25130;BME280;13308;50.860;13.664;2023-05-19T10:20:43;97514.25;;;22.37;46.74
25130;BME280;13308;50.860;13.664;2023-05-19T10:23:09;97504.91;;;22.78;46.65
25130;BME280;13308;50.860;13.664;2023-05-19T10:25:34;97508.75;;;22.66;46.75
25130;BME280;13308;50.860;13.664;2023-05-19T10:28:08;97510.72;;;22.74;46.46
25130;BME280;13308;50.860;13.664;2023-05-19T10:30:38;97501.91;;;22.96;47.60
25130;BME280;13308;50.860;13.664;2023-05-19T10:33:06;97505.56;;;22.73;45.37
25130;BME280;13308;50.860;13.664;2023-05-19T10:35:52;97504.84;;;23.16;45.91
25130;BME280;13308;50.860;13.664;2023-05-19T10:38:45;97511.28;;;23.16;44.94
25130;BME280;13308;50.860;13.664;2023-05-19T10:41:27;97496.50;;;22.31;43.63
25130;BME280;13308;50.860;13.664;2023-05-19T10:44:08;97497.75;;;22.91;43.85
25130;BME280;13308;50.860;13.664;2023-05-19T10:46:34;97503.38;;;23.06;43.05
25130;BME280;13308;50.860;13.664;2023-05-19T10:49:00;97501.16;;;23.10;44.99
25130;BME280;13308;50.860;13.664;2023-05-19T10:51:32;97497.75;;;23.64;43.25
25130;BME280;13308;50.860;13.664;2023-05-19T10:54:02;97495.91;;;22.88;44.32
25130;BME280;13308;50.860;13.664;2023-05-19T10:56:29;97499.41;;;22.98;42.21
25130;BME280;13308;50.860;13.664;2023-05-19T10:58:57;97501.03;;;22.90;44.14
25130;BME280;13308;50.860;13.664;2023-05-19T11:01:29;97499.69;;;23.14;45.18
25130;BME280;13308;50.860;13.664;2023-05-19T11:03:54;97495.81;;;23.70;43.77
25130;BME280;13308;50.860;13.664;2023-05-19T11:06:30;97503.84;;;23.77;44.67
25130;BME280;13308;50.860;13.664;2023-05-19T11:09:08;97490.56;;;23.63;45.39
25130;BME280;13308;50.860;13.664;2023-05-19T11:11:48;97482.81;;;23.43;47.68
25130;BME280;13308;50.860;13.664;2023-05-19T11:14:17;97484.97;;;23.83;46.43
25130;BME280;13308;50.860;13.664;2023-05-19T11:16:45;97490.41;;;23.37;45.08
25130;BME280;13308;50.860;13.664;2023-05-19T11:21:53;97491.13;;;24.36;43.61
25130;BME280;13308;50.860;13.664;2023-05-19T11:27:33;97485.38;;;23.76;47.27
25130;BME280;13308;50.860;13.664;2023-05-19T11:32:32;97489.53;;;22.03;49.06
25130;BME280;13308;50.860;13.664;2023-05-19T11:34:58;97475.09;;;21.86;50.08
25130;BME280;13308;50.860;13.664;2023-05-19T11:37:24;97476.25;;;21.80;49.69
25130;BME280;13308;50.860;13.664;2023-05-19T11:39:50;97475.69;;;21.67;49.04
25130;BME280;13308;50.860;13.664;2023-05-19T11:42:16;97473.44;;;21.80;50.55
25130;BME280;13308;50.860;13.664;2023-05-19T11:44:43;97473.59;;;21.35;50.79
25130;BME280;13308;50.860;13.664;2023-05-19T11:47:10;97472.53;;;22.21;49.68
25130;BME280;13308;50.860;13.664;2023-05-19T11:49:36;97489.03;;;22.89;50.63
25130;BME280;13308;50.860;13.664;2023-05-19T11:52:02;97494.25;;;23.69;51.04
25130;BME280;13308;50.860;13.664;2023-05-19T11:54:32;97497.13;;;23.89;48.80
25130;BME280;13308;50.860;13.664;2023-05-19T11:57:01;97490.56;;;23.63;48.68
25130;BME280;13308;50.860;13.664;2023-05-19T11:59:31;97489.22;;;22.86;49.92
25130;BME280;13308;50.860;13.664;2023-05-19T12:01:57;97503.47;;;22.21;49.43
25130;BME280;13308;50.860;13.664;2023-05-19T12:04:22;97494.03;;;21.77;51.26
25130;BME280;13308;50.860;13.664;2023-05-19T12:06:48;97491.00;;;21.57;51.50
25130;BME280;13308;50.860;13.664;2023-05-19T12:09:13;97483.69;;;21.83;52.07
25130;BME280;13308;50.860;13.664;2023-05-19T12:11:39;97498.44;;;22.48;50.66
25130;BME280;13308;50.860;13.664;2023-05-19T12:14:04;97489.16;;;22.33;51.12
25130;BME280;13308;50.860;13.664;2023-05-19T12:16:33;97471.97;;;22.55;51.63
25130;BME280;13308;50.860;13.664;2023-05-19T12:19:00;97476.38;;;22.99;51.05
25130;BME280;13308;50.860;13.664;2023-05-19T12:21:25;97483.94;;;22.64;48.73
25130;BME280;13308;50.860;13.664;2023-05-19T12:23:51;97467.22;;;22.61;49.05
25130;BME280;13308;50.860;13.664;2023-05-19T12:26:16;97477.28;;;23.20;48.88
25130;BME280;13308;50.860;13.664;2023-05-19T12:28:44;97483.59;;;23.44;50.26
25130;BME280;13308;50.860;13.664;2023-05-19T12:31:10;97476.41;;;23.92;48.77
25130;BME280;13308;50.860;13.664;2023-05-19T12:33:35;97474.59;;;23.25;50.21
25130;BME280;13308;50.860;13.664;2023-05-19T12:36:01;97476.72;;;23.30;50.09
25130;BME280;13308;50.860;13.664;2023-05-19T12:38:26;97472.16;;;23.04;48.19
25130;BME280;13308;50.860;13.664;2023-05-19T12:40:51;97478.63;;;22.43;49.16
25130;BME280;13308;50.860;13.664;2023-05-19T12:43:21;97473.72;;;23.34;48.11
25130;BME280;13308;50.860;13.664;2023-05-19T12:45:47;97484.66;;;23.46;47.18
25130;BME280;13308;50.860;13.664;2023-05-19T12:48:12;97476.97;;;23.03;49.19
25130;BME280;13308;50.860;13.664;2023-05-19T12:50:40;97474.31;;;22.33;50.17
25130;BME280;13308;50.860;13.664;2023-05-19T12:53:08;97480.97;;;21.74;49.97
25130;BME280;13308;50.860;13.664;2023-05-19T12:55:41;97478.03;;;21.18;51.99
25130;BME280;13308;50.860;13.664;2023-05-19T12:58:07;97477.78;;;20.98;54.04
25130;BME280;13308;50.860;13.664;2023-05-19T13:00:39;97461.78;;;20.53;53.82
25130;BME280;13308;50.860;13.664;2023-05-19T13:03:06;97466.31;;;20.42;54.39
25130;BME280;13308;50.860;13.664;2023-05-19T13:05:40;97464.44;;;20.12;56.80
25130;BME280;13308;50.860;13.664;2023-05-19T13:08:09;97467.69;;;20.19;55.83
25130;BME280;13308;50.860;13.664;2023-05-19T13:10:37;97458.94;;;19.90;56.99
25130;BME280;13308;50.860;13.664;2023-05-19T13:13:03;97464.66;;;19.78;57.75
25130;BME280;13308;50.860;13.664;2023-05-19T13:15:30;97462.59;;;19.78;57.20
25130;BME280;13308;50.860;13.664;2023-05-19T13:17:59;97457.88;;;19.48;58.91
25130;BME280;13308;50.860;13.664;2023-05-19T13:20:24;97449.00;;;19.41;58.96
25130;BME280;13308;50.860;13.664;2023-05-19T13:22:50;97451.78;;;19.41;59.50
25130;BME280;13308;50.860;13.664;2023-05-19T13:25:16;97451.00;;;19.40;60.11
25130;BME280;13308;50.860;13.664;2023-05-19T13:27:43;97469.75;;;19.22;59.60
25130;BME280;13308;50.860;13.664;2023-05-19T13:30:10;97466.19;;;19.00;61.42
25130;BME280;13308;50.860;13.664;2023-05-19T13:32:35;97459.66;;;19.03;61.47
25130;BME280;13308;50.860;13.664;2023-05-19T13:35:00;97465.25;;;19.03;61.09
25130;BME280;13308;50.860;13.664;2023-05-19T13:37:26;97466.50;;;19.02;61.74
25130;BME280;13308;50.860;13.664;2023-05-19T13:39:52;97472.41;;;19.26;62.42
25130;BME280;13308;50.860;13.664;2023-05-19T13:42:17;97463.22;;;19.25;60.77
25130;BME280;13308;50.860;13.664;2023-05-19T13:44:44;97458.72;;;19.27;61.08
25130;BME280;13308;50.860;13.664;2023-05-19T13:47:10;97464.81;;;19.35;61.39
25130;BME280;13308;50.860;13.664;2023-05-19T13:49:35;97452.03;;;19.25;61.56
25130;BME280;13308;50.860;13.664;2023-05-19T13:52:00;97449.75;;;19.41;59.78
25130;BME280;13308;50.860;13.664;2023-05-19T13:54:26;97457.94;;;19.27;60.30
25130;BME280;13308;50.860;13.664;2023-05-19T13:56:51;97458.88;;;19.24;60.39
25130;BME280;13308;50.860;13.664;2023-05-19T13:59:17;97457.94;;;18.97;62.17
25130;BME280;13308;50.860;13.664;2023-05-19T14:01:42;97442.78;;;18.85;61.36
25130;BME280;13308;50.860;13.664;2023-05-19T14:04:08;97455.19;;;18.75;62.99
25130;BME280;13308;50.860;13.664;2023-05-19T14:06:34;97453.34;;;18.81;63.78
25130;BME280;13308;50.860;13.664;2023-05-19T14:09:01;97461.50;;;18.97;62.49
25130;BME280;13308;50.860;13.664;2023-05-19T14:11:26;97453.22;;;18.85;62.73
25130;BME280;13308;50.860;13.664;2023-05-19T14:13:51;97462.16;;;19.01;62.71
25130;BME280;13308;50.860;13.664;2023-05-19T14:16:17;97463.75;;;18.81;62.08
25130;BME280;13308;50.860;13.664;2023-05-19T14:18:42;97455.50;;;18.77;63.44
25130;BME280;13308;50.860;13.664;2023-05-19T14:21:08;97455.38;;;18.59;63.82
25130;BME280;13308;50.860;13.664;2023-05-19T14:23:33;97462.06;;;18.62;64.49
25130;BME280;13308;50.860;13.664;2023-05-19T14:25:59;97451.34;;;18.26;64.30
25130;BME280;13308;50.860;13.664;2023-05-19T14:28:24;97444.47;;;18.18;64.92
25130;BME280;13308;50.860;13.664;2023-05-19T14:30:50;97451.75;;;18.16;65.75
25130;BME280;13308;50.860;13.664;2023-05-19T14:33:16;97458.03;;;18.07;66.67
25130;BME280;13308;50.860;13.664;2023-05-19T14:35:41;97452.38;;;17.98;66.69
25130;BME280;13308;50.860;13.664;2023-05-19T14:38:07;97450.41;;;17.86;67.83
25130;BME280;13308;50.860;13.664;2023-05-19T14:40:32;97455.00;;;17.80;66.25
25130;BME280;13308;50.860;13.664;2023-05-19T14:42:57;97458.84;;;17.95;67.50
25130;BME280;13308;50.860;13.664;2023-05-19T14:45:23;97454.47;;;18.07;66.49
25130;BME280;13308;50.860;13.664;2023-05-19T14:47:48;97457.13;;;18.10;66.74
25130;BME280;13308;50.860;13.664;2023-05-19T14:50:13;97450.22;;;18.02;67.50
25130;BME280;13308;50.860;13.664;2023-05-19T14:52:38;97449.06;;;17.78;67.92
25130;BME280;13308;50.860;13.664;2023-05-19T14:55:04;97463.59;;;17.73;67.86
25130;BME280;13308;50.860;13.664;2023-05-19T14:57:29;97455.38;;;17.57;68.20
25130;BME280;13308;50.860;13.664;2023-05-19T14:59:55;97462.50;;;17.46;68.65
25130;BME280;13308;50.860;13.664;2023-05-19T15:02:20;97466.09;;;17.46;68.59
25130;BME280;13308;50.860;13.664;2023-05-19T15:04:45;97464.94;;;17.31;68.85
25130;BME280;13308;50.860;13.664;2023-05-19T15:07:11;97460.63;;;17.18;70.36
25130;BME280;13308;50.860;13.664;2023-05-19T15:09:36;97463.63;;;16.98;71.43
25130;BME280;13308;50.860;13.664;2023-05-19T15:12:02;97462.94;;;16.94;71.11
25130;BME280;13308;50.860;13.664;2023-05-19T15:14:27;97462.81;;;16.85;72.60
25130;BME280;13308;50.860;13.664;2023-05-19T15:16:52;97459.25;;;16.72;73.09
25130;BME280;13308;50.860;13.664;2023-05-19T15:19:17;97457.47;;;16.78;72.97
25130;BME280;13308;50.860;13.664;2023-05-19T15:21:43;97459.78;;;16.67;73.97
25130;BME280;13308;50.860;13.664;2023-05-19T15:24:10;97463.00;;;16.66;73.32
25130;BME280;13308;50.860;13.664;2023-05-19T15:26:35;97469.75;;;16.52;74.74
25130;BME280;13308;50.860;13.664;2023-05-19T15:29:01;97457.06;;;16.51;74.22
25130;BME280;13308;50.860;13.664;2023-05-19T15:31:26;97466.06;;;16.43;74.57
25130;BME280;13308;50.860;13.664;2023-05-19T15:33:51;97468.75;;;16.46;75.70
25130;BME280;13308;50.860;13.664;2023-05-19T15:36:17;97478.66;;;16.47;75.36
25130;BME280;13308;50.860;13.664;2023-05-19T15:38:42;97472.47;;;16.68;72.65
25130;BME280;13308;50.860;13.664;2023-05-19T15:41:08;97471.53;;;16.46;75.10
25130;BME280;13308;50.860;13.664;2023-05-19T15:43:33;97471.19;;;16.44;76.41
25130;BME280;13308;50.860;13.664;2023-05-19T15:45:59;97469.28;;;16.41;77.34
25130;BME280;13308;50.860;13.664;2023-05-19T15:48:25;97472.56;;;16.36;76.86
25130;BME280;13308;50.860;13.664;2023-05-19T15:50:55;97473.22;;;16.28;76.61
25130;BME280;13308;50.860;13.664;2023-05-19T15:53:22;97480.06;;;16.11;76.78
25130;BME280;13308;50.860;13.664;2023-05-19T15:55:47;97482.53;;;16.21;76.48
25130;BME280;13308;50.860;13.664;2023-05-19T15:58:12;97478.22;;;16.04;77.57
25130;BME280;13308;50.860;13.664;2023-05-19T16:00:39;97475.22;;;15.99;78.47
25130;BME280;13308;50.860;13.664;2023-05-19T16:03:05;97484.53;;;15.92;76.99
25130;BME280;13308;50.860;13.664;2023-05-19T16:05:30;97486.69;;;15.85;76.98
25130;BME280;13308;50.860;13.664;2023-05-19T16:07:55;97484.81;;;15.66;78.12
25130;BME280;13308;50.860;13.664;2023-05-19T16:10:20;97478.47;;;15.65;77.66
25130;BME280;13308;50.860;13.664;2023-05-19T16:12:46;97490.28;;;15.69;78.09
25130;BME280;13308;50.860;13.664;2023-05-19T16:15:11;97483.34;;;15.61;78.45
25130;BME280;13308;50.860;13.664;2023-05-19T16:17:37;97478.91;;;15.64;77.81
25130;BME280;13308;50.860;13.664;2023-05-19T16:20:02;97484.75;;;15.53;78.71
25130;BME280;13308;50.860;13.664;2023-05-19T16:22:28;97491.25;;;15.63;79.08
25130;BME280;13308;50.860;13.664;2023-05-19T16:24:54;97483.16;;;15.52;78.18
25130;BME280;13308;50.860;13.664;2023-05-19T16:27:19;97486.09;;;15.45;79.92
25130;BME280;13308;50.860;13.664;2023-05-19T16:29:45;97485.69;;;15.47;79.71
25130;BME280;13308;50.860;13.664;2023-05-19T16:32:10;97476.72;;;15.39;80.46
25130;BME280;13308;50.860;13.664;2023-05-19T16:34:36;97471.88;;;15.43;79.64
25130;BME280;13308;50.860;13.664;2023-05-19T16:37:01;97479.69;;;15.48;79.27
25130;BME280;13308;50.860;13.664;2023-05-19T16:39:26;97482.47;;;15.32;79.67
25130;BME280;13308;50.860;13.664;2023-05-19T16:41:52;97475.47;;;15.24;80.02
25130;BME280;13308;50.860;13.664;2023-05-19T16:44:17;97481.03;;;15.24;80.66
25130;BME280;13308;50.860;13.664;2023-05-19T16:46:43;97478.41;;;15.17;81.14
25130;BME280;13308;50.860;13.664;2023-05-19T16:49:09;97478.56;;;15.10;80.31
25130;BME280;13308;50.860;13.664;2023-05-19T16:51:34;97467.97;;;15.05;81.32
25130;BME280;13308;50.860;13.664;2023-05-19T16:54:00;97461.63;;;15.05;81.03
25130;BME280;13308;50.860;13.664;2023-05-19T16:56:25;97464.66;;;14.94;81.58
25130;BME280;13308;50.860;13.664;2023-05-19T16:58:50;97470.66;;;14.93;81.43
25130;BME280;13308;50.860;13.664;2023-05-19T17:01:16;97475.41;;;14.92;82.11
25130;BME280;13308;50.860;13.664;2023-05-19T17:03:42;97469.16;;;14.88;83.16
25130;BME280;13308;50.860;13.664;2023-05-19T17:06:07;97473.22;;;14.84;83.04
25130;BME280;13308;50.860;13.664;2023-05-19T17:08:32;97480.78;;;14.83;83.49
25130;BME280;13308;50.860;13.664;2023-05-19T17:10:58;97468.63;;;14.77;83.51
25130;BME280;13308;50.860;13.664;2023-05-19T17:13:23;97472.81;;;14.66;84.46
25130;BME280;13308;50.860;13.664;2023-05-19T17:15:50;97468.22;;;14.59;84.92
25130;BME280;13308;50.860;13.664;2023-05-19T17:18:17;97473.91;;;14.52;84.93
25130;BME280;13308;50.860;13.664;2023-05-19T17:20:42;97466.50;;;14.46;85.99
25130;BME280;13308;50.860;13.664;2023-05-19T17:23:08;97463.81;;;14.42;86.00
25130;BME280;13308;50.860;13.664;2023-05-19T17:25:33;97461.09;;;14.39;86.57
25130;BME280;13308;50.860;13.664;2023-05-19T17:27:59;97458.03;;;14.33;86.80
25130;BME280;13308;50.860;13.664;2023-05-19T17:30:24;97460.94;;;14.26;87.30
25130;BME280;13308;50.860;13.664;2023-05-19T17:32:49;97475.34;;;14.18;87.63